Colonial Heights, Tennessee
Current Conditions -  °F | °C
As of 8:53 AM on Thursday 18 Dec 2014 (Local Time) from KTRI Reporting Station
Haze Haze  
Wind Chill: 30°   Ceiling: 8500
Heat Index: 30°   Visibility: 6mi
Dew Point: 29°   Wind: 0mph
Humidity: 96%   Direction: NA
Pressure: 30.21"   Gusts: NA
Location:  36.4621°N, 82.5069°W
Report Text: KTRI 181353Z 00000KT 6SM BR FEW001 OVC085 M01/M02 A3021 RMK AO2 SLP231 T10111017
Loading
Personal Weather Stations






























Interactive Weather Map New forecast layout! Learn more

10-Day Weather Forecast

Advertisements
Track Severe Weather on mobile